createdAt,value
2023-05-25T10:26:29.469Z,54.67
2023-05-25T10:29:04.754Z,55.33
2023-05-25T10:31:37.916Z,54.95
2023-05-25T10:34:06.979Z,54.73
2023-05-25T10:36:38.971Z,53.94
2023-05-25T10:39:09.403Z,53.43
2023-05-25T10:41:39.681Z,53.46
2023-05-25T10:44:08.982Z,55.14
2023-05-25T10:46:37.594Z,54.69
2023-05-25T10:49:06.407Z,53.75
2023-05-25T10:51:44.094Z,53.55
2023-05-25T10:54:16.383Z,54.15
2023-05-25T10:57:10.703Z,53.84
2023-05-25T10:59:45.811Z,53.22
2023-05-25T11:02:14.841Z,53.17
2023-05-25T11:04:45.397Z,52.54
2023-05-25T11:07:20.250Z,53.24
2023-05-25T11:10:00.234Z,52.68
2023-05-25T11:12:29.525Z,52.16
2023-05-25T11:15:18.468Z,52.42
2023-05-25T11:18:02.984Z,52.23
2023-05-25T11:20:32.342Z,51.99
2023-05-25T11:23:01.109Z,52.57
2023-05-25T11:25:41.962Z,53.62
2023-05-25T11:28:13.280Z,53.33
2023-05-25T11:30:44.855Z,53.39
2023-05-25T11:33:13.760Z,52.13
2023-05-25T11:35:45.960Z,51.91
2023-05-25T11:38:16.300Z,52.19
2023-05-25T11:40:45.034Z,51.70
2023-05-25T11:43:15.225Z,52.01
2023-05-25T11:45:45.725Z,51.90
2023-05-25T11:48:16.337Z,51.13
2023-05-25T11:50:45.727Z,50.92
2023-05-25T11:53:15.198Z,50.85
2023-05-25T11:55:57.691Z,51.37
2023-05-25T11:58:35.540Z,51.32
2023-05-25T12:01:19.674Z,51.00
2023-05-25T12:03:49.571Z,50.78
2023-05-25T12:06:29.817Z,50.73
2023-05-25T12:08:59.781Z,50.86
2023-05-25T12:11:30.350Z,51.16
2023-05-25T12:13:59.834Z,50.71
2023-05-25T12:16:31.370Z,51.16
2023-05-25T12:19:00.556Z,51.33
2023-05-25T12:21:29.906Z,51.10
2023-05-25T12:23:58.847Z,52.58
2023-05-25T12:26:27.985Z,52.10
2023-05-25T12:29:00.812Z,53.28
2023-05-25T12:31:33.114Z,52.43
2023-05-25T12:34:10.254Z,53.00
2023-05-25T12:36:45.179Z,52.45
2023-05-25T12:39:15.024Z,51.21
2023-05-25T12:41:50.681Z,50.52
2023-05-25T12:44:24.366Z,49.82
2023-05-25T12:46:57.106Z,49.31
2023-05-25T12:49:31.191Z,49.81
2023-05-25T12:52:01.329Z,50.02
2023-05-25T12:54:37.356Z,50.33
2023-05-25T12:57:07.256Z,50.13
2023-05-25T12:59:37.537Z,50.88
2023-05-25T13:02:08.963Z,49.69
2023-05-25T13:04:39.282Z,50.63
2023-05-25T13:07:10.769Z,51.94
2023-05-25T13:09:39.749Z,50.82
2023-05-25T13:12:09.558Z,50.17
2023-05-25T13:14:38.578Z,50.51
2023-05-25T13:17:09.089Z,50.24
2023-05-25T13:19:37.991Z,49.82
2023-05-25T13:22:07.861Z,51.05
2023-05-25T13:24:36.803Z,50.32
2023-05-25T13:27:05.641Z,49.78
2023-05-25T13:29:34.421Z,49.23
2023-05-25T13:32:03.357Z,49.61
2023-05-25T13:34:34.072Z,50.21
2023-05-25T13:37:02.804Z,50.91
2023-05-25T13:39:31.471Z,50.30
2023-05-25T13:42:00.319Z,50.33
2023-05-25T13:44:29.254Z,51.44
2023-05-25T13:46:58.196Z,50.32
2023-05-25T13:49:27.089Z,50.43
2023-05-25T13:51:57.422Z,50.29
2023-05-25T13:54:26.392Z,50.60
2023-05-25T13:56:58.014Z,50.68
2023-05-25T13:59:27.687Z,50.74
2023-05-25T14:01:56.708Z,52.24
2023-05-25T14:04:25.854Z,51.58
2023-05-25T14:06:55.901Z,51.66
2023-05-25T14:09:26.413Z,51.80
2023-05-25T14:11:55.270Z,52.13
2023-05-25T14:14:31.486Z,51.88
2023-05-25T14:17:01.637Z,52.80
2023-05-25T14:19:30.485Z,53.33
2023-05-25T14:22:12.413Z,52.71
2023-05-25T14:24:43.798Z,52.13
2023-05-25T14:27:12.549Z,51.29
2023-05-25T14:29:41.363Z,50.96
2023-05-25T14:32:10.231Z,50.35
2023-05-25T14:34:38.895Z,50.64
2023-05-25T14:37:07.757Z,50.93
2023-05-25T14:39:37.707Z,50.74
2023-05-25T14:42:08.518Z,50.36
2023-05-25T14:44:37.377Z,50.19
2023-05-25T14:47:06.945Z,50.39
2023-05-25T14:49:36.133Z,50.54
2023-05-25T14:52:05.814Z,50.63
2023-05-25T14:54:34.649Z,50.11
2023-05-25T14:57:03.563Z,50.09
2023-05-25T14:59:33.862Z,50.42
2023-05-25T15:02:02.697Z,50.37
2023-05-25T15:04:31.853Z,50.81
2023-05-25T15:07:01.164Z,50.75
2023-05-25T15:09:29.748Z,50.13
2023-05-25T15:11:58.619Z,49.82
2023-05-25T15:14:27.494Z,49.99
2023-05-25T15:16:58.059Z,50.62
2023-05-25T15:19:29.160Z,50.79
2023-05-25T15:21:58.054Z,50.76
2023-05-25T15:24:27.121Z,50.75
2023-05-25T15:26:56.023Z,50.93
2023-05-25T15:29:24.824Z,51.21
2023-05-25T15:31:54.214Z,51.20
2023-05-25T15:34:24.463Z,51.94
2023-05-25T15:36:53.353Z,52.35
2023-05-25T15:39:22.069Z,52.64
2023-05-25T15:41:51.193Z,53.07
2023-05-25T15:44:19.951Z,52.54
2023-05-25T15:46:48.999Z,52.47
2023-05-25T15:49:17.899Z,52.98
2023-05-25T15:51:48.146Z,53.18
2023-05-25T15:54:17.771Z,53.34
2023-05-25T15:56:46.537Z,53.37
2023-05-25T15:59:15.493Z,53.47
2023-05-25T16:01:44.863Z,53.47
2023-05-25T16:04:13.921Z,53.62
2023-05-25T16:06:42.737Z,54.05
2023-05-25T16:09:13.046Z,53.94
2023-05-25T16:11:41.881Z,53.54
2023-05-25T16:14:10.741Z,53.24
2023-05-25T16:16:39.647Z,53.18
2023-05-25T16:19:08.689Z,53.60
2023-05-25T16:21:38.022Z,53.90
2023-05-25T16:24:07.190Z,54.54
2023-05-25T16:26:37.502Z,54.48
2023-05-25T16:29:06.410Z,54.21
2023-05-25T16:31:35.201Z,54.44
2023-05-25T16:34:04.174Z,54.96
2023-05-25T16:36:33.085Z,55.14
2023-05-25T16:39:02.189Z,55.43
2023-05-25T16:41:30.892Z,55.51
2023-05-25T16:44:01.715Z,55.75
2023-05-25T16:46:30.819Z,55.95
2023-05-25T16:48:59.711Z,56.35
2023-05-25T16:51:28.563Z,56.72
2023-05-25T16:53:58.254Z,56.54
2023-05-25T16:56:27.390Z,56.73
2023-05-25T16:58:56.329Z,56.89
2023-05-25T17:01:26.623Z,57.18
2023-05-25T17:03:55.666Z,57.32
2023-05-25T17:06:24.743Z,57.58
2023-05-25T17:08:53.671Z,57.85
2023-05-25T17:11:26.494Z,58.28
2023-05-25T17:13:55.486Z,58.08
2023-05-25T17:16:25.897Z,57.94
2023-05-25T17:18:54.862Z,57.99
2023-05-25T17:21:23.756Z,58.03
2023-05-25T17:23:52.604Z,58.19
2023-05-25T17:26:21.383Z,58.29
2023-05-25T17:28:50.274Z,58.31
2023-05-25T17:31:19.092Z,58.63
2023-05-25T17:33:49.363Z,58.66
2023-05-25T17:36:18.223Z,59.03
2023-05-25T17:38:47.037Z,59.64
2023-05-25T17:41:16.114Z,59.59
2023-05-25T17:43:44.904Z,59.81
2023-05-25T17:46:13.703Z,60.16
2023-05-25T17:48:42.592Z,59.98
2023-05-25T17:51:13.066Z,60.22
2023-05-25T17:53:41.841Z,60.41
2023-05-25T17:56:10.667Z,60.39
2023-05-25T17:58:39.660Z,60.58
2023-05-25T18:01:08.492Z,61.04
2023-05-25T18:03:37.849Z,61.00
2023-05-25T18:06:07.019Z,61.12
2023-05-25T18:08:37.329Z,61.12
2023-05-25T18:11:06.188Z,61.19
2023-05-25T18:13:35.021Z,61.00
2023-05-25T18:16:03.881Z,61.47
2023-05-25T18:18:32.685Z,61.20
2023-05-25T18:21:01.578Z,61.54
2023-05-25T18:23:30.309Z,61.27
2023-05-25T18:26:00.686Z,61.44
2023-05-25T18:28:31.303Z,61.32
2023-05-25T18:31:00.555Z,61.34
2023-05-25T18:33:29.287Z,61.30
2023-05-25T18:35:58.244Z,61.59
2023-05-25T18:38:26.920Z,61.34
2023-05-25T18:40:55.859Z,61.36
2023-05-25T18:43:26.221Z,61.54
2023-05-25T18:45:54.959Z,61.63
2023-05-25T18:48:24.312Z,61.59
2023-05-25T18:50:52.989Z,61.41
2023-05-25T18:53:21.771Z,61.65
2023-05-25T18:55:50.784Z,61.91
2023-05-25T18:58:19.595Z,61.72
2023-05-25T19:00:49.971Z,61.89
2023-05-25T19:03:20.081Z,62.14
2023-05-25T19:05:48.926Z,62.48
2023-05-25T19:08:17.800Z,62.62
2023-05-25T19:10:46.699Z,62.96
2023-05-25T19:13:15.620Z,63.06
2023-05-25T19:15:44.780Z,63.13
2023-05-25T19:18:15.257Z,63.40
2023-05-25T19:20:44.364Z,63.48
2023-05-25T19:23:13.470Z,63.88
2023-05-25T19:25:42.802Z,64.18
2023-05-25T19:28:11.686Z,64.22
2023-05-25T19:30:40.649Z,64.19
2023-05-25T19:33:09.498Z,64.28
2023-05-25T19:35:41.876Z,64.56
2023-05-25T19:38:10.778Z,64.42
2023-05-25T19:40:39.707Z,64.71
2023-05-25T19:43:08.772Z,64.97
2023-05-25T19:45:37.636Z,65.12
2023-05-25T19:48:06.529Z,65.22
2023-05-25T19:50:35.278Z,65.13
2023-05-25T19:53:06.197Z,65.45
2023-05-25T19:55:36.909Z,65.30
2023-05-25T19:58:05.821Z,65.40
2023-05-25T20:00:34.597Z,65.15
2023-05-25T20:03:04.029Z,65.11
2023-05-25T20:05:32.904Z,65.00
2023-05-25T20:08:02.153Z,65.08
2023-05-25T20:10:32.873Z,64.83
2023-05-25T20:13:01.712Z,64.92
2023-05-25T20:15:30.387Z,65.17
2023-05-25T20:17:59.242Z,65.47
2023-05-25T20:20:27.995Z,65.80
2023-05-25T20:22:56.853Z,66.12
2023-05-25T20:25:25.834Z,66.09
2023-05-25T20:27:55.954Z,66.37
2023-05-25T20:30:25.135Z,66.48
2023-05-25T20:32:53.987Z,66.53
2023-05-25T20:35:22.872Z,66.81
2023-05-25T20:37:51.808Z,66.70
2023-05-25T20:40:21.068Z,66.88
2023-05-25T20:42:49.791Z,67.25
2023-05-25T20:45:20.230Z,67.08
2023-05-25T20:47:49.158Z,67.38
2023-05-25T20:50:18.129Z,67.40
2023-05-25T20:52:46.929Z,67.56
2023-05-25T20:55:15.642Z,67.57
2023-05-25T20:57:44.373Z,67.53
2023-05-25T21:00:15.523Z,67.79
2023-05-25T21:02:46.293Z,67.89
2023-05-25T21:05:16.289Z,67.74
2023-05-25T21:07:45.321Z,68.16
2023-05-25T21:10:14.109Z,68.18
2023-05-25T21:12:42.988Z,68.08
2023-05-25T21:15:12.174Z,68.52
2023-05-25T21:17:40.996Z,68.58
2023-05-25T21:20:12.168Z,69.16
2023-05-25T21:22:41.983Z,69.25
2023-05-25T21:25:11.799Z,69.38
2023-05-25T21:27:40.927Z,69.70
2023-05-25T21:30:10.396Z,69.94
2023-05-25T21:32:39.248Z,70.06
2023-05-25T21:35:08.247Z,70.13
2023-05-25T21:37:38.439Z,70.16
2023-05-25T21:40:08.469Z,70.36
2023-05-25T21:42:37.164Z,70.82
2023-05-25T21:45:06.611Z,70.99
2023-05-25T21:47:36.449Z,70.77
2023-05-25T21:50:05.687Z,70.71
2023-05-25T21:52:34.551Z,71.04
2023-05-25T21:55:04.850Z,71.14
2023-05-25T21:57:33.658Z,71.32
2023-05-25T22:00:02.351Z,71.57
2023-05-25T22:02:41.388Z,71.82
2023-05-25T22:05:10.637Z,72.28
2023-05-25T22:07:39.389Z,72.25
2023-05-25T22:10:10.484Z,72.71
2023-05-25T22:12:39.201Z,73.33
2023-05-25T22:15:09.013Z,73.24
2023-05-25T22:17:37.891Z,73.71
2023-05-25T22:20:08.417Z,73.54
2023-05-25T22:22:38.465Z,74.09
2023-05-25T22:25:07.800Z,74.28
2023-05-25T22:27:38.346Z,73.93
2023-05-25T22:30:09.092Z,73.96
2023-05-25T22:32:38.310Z,73.90
2023-05-25T22:35:08.264Z,74.04
2023-05-25T22:37:37.159Z,74.07
2023-05-25T22:40:07.344Z,73.75
2023-05-25T22:42:37.562Z,73.87
2023-05-25T22:45:07.356Z,73.81
2023-05-25T22:47:36.783Z,73.84
2023-05-25T22:50:05.788Z,73.82
2023-05-25T22:52:34.651Z,74.15
2023-05-25T22:55:03.888Z,74.21
2023-05-25T22:57:32.688Z,74.59
2023-05-25T23:00:02.952Z,74.72
2023-05-25T23:02:33.250Z,74.67
2023-05-25T23:05:02.029Z,74.76
2023-05-25T23:07:31.501Z,74.26
2023-05-25T23:10:00.313Z,74.96
2023-05-25T23:12:29.158Z,74.73
2023-05-25T23:14:59.536Z,75.08
2023-05-25T23:17:29.838Z,74.87
2023-05-25T23:19:58.706Z,75.06
2023-05-25T23:22:27.474Z,75.21
2023-05-25T23:24:56.385Z,75.94
2023-05-25T23:27:25.174Z,75.88
2023-05-25T23:29:54.002Z,76.05
2023-05-25T23:32:23.125Z,75.77
2023-05-25T23:34:53.326Z,75.92
2023-05-25T23:37:22.739Z,76.02
2023-05-25T23:39:51.607Z,75.90
2023-05-25T23:42:20.254Z,76.20
2023-05-25T23:44:49.120Z,76.29
2023-05-25T23:47:17.772Z,75.87
2023-05-25T23:49:46.804Z,76.36
2023-05-25T23:52:16.892Z,75.84
2023-05-25T23:54:45.910Z,75.90
2023-05-25T23:57:14.882Z,76.00
2023-05-25T23:59:43.962Z,76.03
